Martin Challenger — WDB2346 — position and weather

sailwx.info

Track history (hours):
 
Tides and Currents Weather Stations Pressure Air Temp Water Temp Dewpoint Dewpoint Depression Visibility Wind Speed Wind Dir Waves Ship Positions

Martin Challenger

Owner: MARTIN OPERATING PARTNERSHIP LP, VIDOR, TX. More information available from US FCC via Universal Licensing System and Coast Guard Vessel Documentation Center.

Last reported at 2014-Nov-22 23:14 UTC. Time now 2014-Nov-23 13:34 UTC.
Position N 29°46' W 095°05'.

Length 20 m; draft 2.9 m.

MMSI: 366874920.

Date/timePositionNaut miles runAvg speedWind from/ knotsBaromVisibWave heightAir tempDewpointWater temp
2014-Nov-22 23:14N 29°46' W 095°05'0 0.0
2014-Nov-22 22:32N 29°46' W 095°05'0 0.0
2014-Nov-22 21:33N 29°46' W 095°05'0 0.0
2014-Nov-22 20:33N 29°46' W 095°05'0 0.0
2014-Nov-22 17:08N 29°46' W 095°05'0 0.0
2014-Nov-22 15:33N 29°46' W 095°05'0 0.0
2014-Nov-22 14:28N 29°46' W 095°05'0 0.0
2014-Nov-21 22:33N 29°46' W 095°05'0 0.0
2014-Nov-20 17:13N 29°46' W 095°05'0 0.0
2014-Nov-20 13:23N 29°46' W 095°05'0 0.0
2014-Nov-19 22:22N 29°46' W 095°05'0 0.0
2014-Nov-19 19:33N 29°46' W 095°05'0 0.0
2014-Nov-19 15:13N 29°46' W 095°05'0 0.0
2014-Nov-19 14:33N 29°46' W 095°05'0 0.0
2014-Nov-19 13:33N 29°46' W 095°05'0 0.0
2014-Nov-19 08:28N 29°46' W 095°05'3 3.3
2014-Nov-19 07:33N 29°44' W 095°03'4 3.6
2014-Nov-19 06:33N 29°42' W 094°59'4 4.2
2014-Nov-19 05:33N 29°38' W 094°58'5 4.5
2014-Nov-19 04:33N 29°34' W 094°55'12 0.3
2014-Nov-17 15:15N 29°22' W 094°53'8 0.2
2014-Nov-16 00:31N 29°30' W 094°52'4 4.1
2014-Nov-15 23:33N 29°34' W 094°55'4 4.0
2014-Nov-15 22:33N 29°37' W 094°57'5 4.6
2014-Nov-15 21:33N 29°41' W 094°59'3 3.3
2014-Nov-15 20:33N 29°44' W 095°01'0 0.0
2014-Nov-15 19:33N 29°44' W 095°01'0 0.0
2014-Nov-15 18:33N 29°44' W 095°01'0 0.0
2014-Nov-15 17:32N 29°44' W 095°01'0 0.0
2014-Nov-15 16:33N 29°44' W 095°01'0 0.0
2014-Nov-15 15:33N 29°44' W 095°01'0 0.0
2014-Nov-15 14:33N 29°44' W 095°01'0 0.1
2014-Nov-15 13:33N 29°44' W 095°01'0 0.0
2014-Nov-15 02:20N 29°44' W 095°01'0 0.0
2014-Nov-15 01:32N 29°44' W 095°01'0 0.0
2014-Nov-15 00:26N 29°44' W 095°01'0 0.0
2014-Nov-14 23:33N 29°44' W 095°01'0 0.0
2014-Nov-14 22:32N 29°44' W 095°01'0 0.0
2014-Nov-14 21:33N 29°44' W 095°01'0 0.0
2014-Nov-14 20:29N 29°44' W 095°01'0 0.0
2014-Nov-14 19:33N 29°44' W 095°01'0 0.0
2014-Nov-14 18:33N 29°44' W 095°01'0 0.0
2014-Nov-14 17:33N 29°44' W 095°01'0 0.0
2014-Nov-14 16:33N 29°44' W 095°01'0 0.0
2014-Nov-14 15:33N 29°44' W 095°01'0 0.0
2014-Nov-14 14:33N 29°44' W 095°01'0 0.0
2014-Nov-14 08:13N 29°44' W 095°01'0 0.0
2014-Nov-13 23:31N 29°44' W 095°01'0 0.0
2014-Nov-13 20:28N 29°44' W 095°01'0 0.1
2014-Nov-13 19:33N 29°44' W 095°01'0 0.1
2014-Nov-13 18:33N 29°44' W 095°01'0 0.0
2014-Nov-13 17:33N 29°44' W 095°01'1 0.8
2014-Nov-13 16:33N 29°44' W 095°02'4 3.6
2014-Nov-13 15:33N 29°47' W 095°05'0 0.0
2014-Nov-13 14:33N 29°47' W 095°05'0 0.0
2014-Nov-13 13:33N 29°47' W 095°05'0 0.0
2014-Nov-13 12:33N 29°47' W 095°05'0 0.0
2014-Nov-13 11:33N 29°47' W 095°05'0 0.0
2014-Nov-13 10:32N 29°47' W 095°05'0 0.0
2014-Nov-13 09:29N 29°47' W 095°05'0 0.0
2014-Nov-13 08:29N 29°47' W 095°05'0 0.0
2014-Nov-13 07:29N 29°47' W 095°05'0 0.0
2014-Nov-13 06:12N 29°47' W 095°05'0 0.0
2014-Nov-13 05:22N 29°47' W 095°05'0 0.0
2014-Nov-13 02:33N 29°47' W 095°05'0 0.0
2014-Nov-13 01:32N 29°47' W 095°05'0 0.0
2014-Nov-13 00:33N 29°47' W 095°05'0 0.0
2014-Nov-12 23:22N 29°47' W 095°05'  
Track history (hours):
 
Tides and Currents Weather Stations Pressure Air Temp Water Temp Dewpoint Dewpoint Depression Visibility Wind Speed Wind Dir Waves Ship Positions

Martin Challenger

Owner: MARTIN OPERATING PARTNERSHIP LP, VIDOR, TX. More information available from US FCC via Universal Licensing System and Coast Guard Vessel Documentation Center.

Last reported at 2014-Nov-22 23:14 UTC. Time now 2014-Nov-23 13:34 UTC.
Position N 29°46' W 095°05'.

Length 20 m; draft 2.9 m.

MMSI: 366874920.

Date/timePositionNaut miles runAvg speedWind from/ knotsBaromVisibWave heightAir tempDewpointWater temp
2014-Nov-22 23:14N 29°46' W 095°05'0 0.0
2014-Nov-22 22:32N 29°46' W 095°05'0 0.0
2014-Nov-22 21:33N 29°46' W 095°05'0 0.0
2014-Nov-22 20:33N 29°46' W 095°05'0 0.0
2014-Nov-22 17:08N 29°46' W 095°05'0 0.0
2014-Nov-22 15:33N 29°46' W 095°05'0 0.0
2014-Nov-22 14:28N 29°46' W 095°05'0 0.0
2014-Nov-21 22:33N 29°46' W 095°05'0 0.0
2014-Nov-20 17:13N 29°46' W 095°05'0 0.0
2014-Nov-20 13:23N 29°46' W 095°05'0 0.0
2014-Nov-19 22:22N 29°46' W 095°05'0 0.0
2014-Nov-19 19:33N 29°46' W 095°05'0 0.0
2014-Nov-19 15:13N 29°46' W 095°05'0 0.0
2014-Nov-19 14:33N 29°46' W 095°05'0 0.0
2014-Nov-19 13:33N 29°46' W 095°05'0 0.0
2014-Nov-19 08:28N 29°46' W 095°05'3 3.3
2014-Nov-19 07:33N 29°44' W 095°03'4 3.6
2014-Nov-19 06:33N 29°42' W 094°59'4 4.2
2014-Nov-19 05:33N 29°38' W 094°58'5 4.5
2014-Nov-19 04:33N 29°34' W 094°55'12 0.3
2014-Nov-17 15:15N 29°22' W 094°53'8 0.2
2014-Nov-16 00:31N 29°30' W 094°52'4 4.1
2014-Nov-15 23:33N 29°34' W 094°55'4 4.0
2014-Nov-15 22:33N 29°37' W 094°57'5 4.6
2014-Nov-15 21:33N 29°41' W 094°59'3 3.3
2014-Nov-15 20:33N 29°44' W 095°01'0 0.0
2014-Nov-15 19:33N 29°44' W 095°01'0 0.0
2014-Nov-15 18:33N 29°44' W 095°01'0 0.0
2014-Nov-15 17:32N 29°44' W 095°01'0 0.0
2014-Nov-15 16:33N 29°44' W 095°01'0 0.0
2014-Nov-15 15:33N 29°44' W 095°01'0 0.0
2014-Nov-15 14:33N 29°44' W 095°01'0 0.1
2014-Nov-15 13:33N 29°44' W 095°01'0 0.0
2014-Nov-15 02:20N 29°44' W 095°01'0 0.0
2014-Nov-15 01:32N 29°44' W 095°01'0 0.0
2014-Nov-15 00:26N 29°44' W 095°01'0 0.0
2014-Nov-14 23:33N 29°44' W 095°01'0 0.0
2014-Nov-14 22:32N 29°44' W 095°01'0 0.0
2014-Nov-14 21:33N 29°44' W 095°01'0 0.0
2014-Nov-14 20:29N 29°44' W 095°01'0 0.0
2014-Nov-14 19:33N 29°44' W 095°01'0 0.0
2014-Nov-14 18:33N 29°44' W 095°01'0 0.0
2014-Nov-14 17:33N 29°44' W 095°01'0 0.0
2014-Nov-14 16:33N 29°44' W 095°01'0 0.0
2014-Nov-14 15:33N 29°44' W 095°01'0 0.0
2014-Nov-14 14:33N 29°44' W 095°01'0 0.0
2014-Nov-14 08:13N 29°44' W 095°01'0 0.0
2014-Nov-13 23:31N 29°44' W 095°01'0 0.0
2014-Nov-13 20:28N 29°44' W 095°01'0 0.1
2014-Nov-13 19:33N 29°44' W 095°01'0 0.1
2014-Nov-13 18:33N 29°44' W 095°01'0 0.0
2014-Nov-13 17:33N 29°44' W 095°01'1 0.8
2014-Nov-13 16:33N 29°44' W 095°02'4 3.6
2014-Nov-13 15:33N 29°47' W 095°05'0 0.0
2014-Nov-13 14:33N 29°47' W 095°05'0 0.0
2014-Nov-13 13:33N 29°47' W 095°05'0 0.0
2014-Nov-13 12:33N 29°47' W 095°05'0 0.0
2014-Nov-13 11:33N 29°47' W 095°05'0 0.0
2014-Nov-13 10:32N 29°47' W 095°05'0 0.0
2014-Nov-13 09:29N 29°47' W 095°05'0 0.0
2014-Nov-13 08:29N 29°47' W 095°05'0 0.0
2014-Nov-13 07:29N 29°47' W 095°05'0 0.0
2014-Nov-13 06:12N 29°47' W 095°05'0 0.0
2014-Nov-13 05:22N 29°47' W 095°05'0 0.0
2014-Nov-13 02:33N 29°47' W 095°05'0 0.0
2014-Nov-13 01:32N 29°47' W 095°05'0 0.0
2014-Nov-13 00:33N 29°47' W 095°05'0 0.0
2014-Nov-12 23:22N 29°47' W 095°05'  

Dump ship's entire track history